METAR AND TAF INFORMATION
METAR FOR VOHY
ADDS - METARS form results

(1052 UTC 16 October 2018)
Data provider http://aviationweather.gov/metar/data/
 
METAR text: VOHY 161030Z 09006KT 5000 HZ FEW015 SCT025 FEW030CB BKN100 31/22 Q1014 NOSIG
Conditions at: VOHY (HYDERABAD (CIV/M, IN) observed 1030 UTC 16 October 2018
Temperature: 31.0°C (88°F)
Dewpoint: 22.0°C (72°F) [RH = 59%]
Pressure (altimeter): 29.94 inches Hg (1014.0 mb)
Winds: from the E (90 degrees) at 7 MPH (6 knots; 3.1 m/s)
Visibility: 3 miles ( 5 km)
Ceiling: 10000 feet AGL
Clouds: few clouds at 1500 feet AGL
scattered clouds at 2500 feet AGL
few clouds at 3000 feet AGL
broken clouds at 10000 feet AGL
Weather: HZ  (haze)

METAR text: VOHY 161000Z 08005KT 5000 HZ FEW015 SCT025 FEW030CB BKN100 32/23 Q1014 NOSIG
Conditions at: VOHY (HYDERABAD (CIV/M, IN) observed 1000 UTC 16 October 2018
Temperature: 32.0°C (90°F)
Dewpoint: 23.0°C (73°F) [RH = 59%]
Pressure (altimeter): 29.94 inches Hg (1014.0 mb)
Winds: from the E (80 degrees) at 6 MPH (5 knots; 2.6 m/s)
Visibility: 3 miles ( 5 km)
Ceiling: 10000 feet AGL
Clouds: few clouds at 1500 feet AGL
scattered clouds at 2500 feet AGL
few clouds at 3000 feet AGL
broken clouds at 10000 feet AGL
Weather: HZ  (haze)

 AIRPORT MAP

 RUNWAY INFORMATION
Runway 09 Runway length 10600 ft Runway width 148 ft
Runway elevation 1741 ft Runway displaced threshold 1575 ft Runway heading 89
Runway 27 Runway length 10600 ft Runway width 148 ft
Runway elevation 1715 ft Runway displaced threshold 2424 ft Runway heading 269

 AIRPORT FREQUENCIES
Type ACC Name ACC Frequency 129.7 MHZ
Type APP Name APP Frequency 132.4 MHZ
Type ATIS Name ATIS Frequency 126.8 MHZ
Type RDO Name RDO Frequency 287.2 MHZ
Type TWR Name TWR Frequency 122.25 MHZ

 AIRPORT NEAR NAVIGATION AIDS
Type VOR-DME Name Hyderabad Frequency 114700 KHZ



Copyright © 2011 - 2018 BirgenAir Virtual Airlines. All rights reserved. Developed by Goktug Unver